createdAt,value
2023-04-26T00:01:40.207Z,100853.31
2023-04-26T00:06:43.896Z,100856.56
2023-04-26T00:11:47.632Z,100857.13
2023-04-26T00:16:53.107Z,100859.63
2023-04-26T00:21:56.746Z,100858.34
2023-04-26T00:27:00.349Z,100861.13
2023-04-26T00:32:06.078Z,100864.63
2023-04-26T00:37:09.727Z,100863.50
2023-04-26T00:42:13.363Z,100866.50
2023-04-26T00:47:18.683Z,100877.53
2023-04-26T00:52:23.365Z,100867.63
2023-04-26T00:57:27.076Z,100868.59
2023-04-26T01:02:32.522Z,100870.34
2023-04-26T01:07:37.603Z,100870.66
2023-04-26T01:12:41.252Z,100870.28
2023-04-26T01:17:49.489Z,100868.63
2023-04-26T01:22:54.869Z,100869.38
2023-04-26T01:27:58.476Z,100874.50
2023-04-26T01:33:02.168Z,100872.34
2023-04-26T01:38:07.495Z,100877.47
2023-04-26T01:43:11.141Z,100873.13
2023-04-26T01:48:14.786Z,100874.38
2023-04-26T01:53:20.043Z,100884.44
2023-04-26T01:58:23.846Z,100892.78
2023-04-26T02:03:27.496Z,100893.69
2023-04-26T02:08:32.746Z,100894.78
2023-04-26T02:13:36.400Z,100901.44
2023-04-26T02:18:40.025Z,100913.66
2023-04-26T02:23:45.450Z,100912.75
2023-04-26T02:33:51.869Z,100929.06
2023-04-26T02:38:57.168Z,100929.28
2023-04-26T02:44:00.782Z,100939.25
2023-04-26T02:49:04.437Z,100945.28
2023-04-26T02:54:09.737Z,100941.09
2023-04-26T02:59:13.340Z,100950.75
2023-04-26T03:04:17.120Z,100956.81
2023-04-26T03:09:22.422Z,100952.28
2023-04-26T03:14:26.530Z,100964.84
2023-04-26T03:19:30.120Z,100970.22
2023-04-26T03:24:35.467Z,100973.44
2023-04-26T03:29:39.083Z,100982.13
2023-04-26T03:34:42.689Z,100974.72
2023-04-26T03:39:47.932Z,100982.94
2023-04-26T03:44:50.826Z,100984.31
2023-04-26T03:49:54.427Z,100994.66
2023-04-26T03:54:59.744Z,101004.25
2023-04-26T04:00:02.602Z,101007.59
2023-04-26T04:05:06.958Z,101014.44
2023-04-26T04:10:12.809Z,101008.94
2023-04-26T04:15:16.832Z,101018.00
2023-04-26T04:20:20.688Z,101015.47
2023-04-26T04:25:25.974Z,101020.00
2023-04-26T04:30:29.693Z,101030.25
2023-04-26T04:35:33.344Z,101025.94
2023-04-26T04:40:38.748Z,101048.31
2023-04-26T04:45:42.337Z,101056.69
2023-04-26T04:50:45.927Z,101053.69
2023-04-26T04:55:51.136Z,101067.00
2023-04-26T05:00:54.784Z,101065.84
2023-04-26T05:05:58.501Z,101060.91
2023-04-26T05:11:03.806Z,101068.56
2023-04-26T05:16:07.758Z,101058.34
2023-04-26T05:21:11.425Z,101064.47
2023-04-26T05:26:17.734Z,101065.25
2023-04-26T05:31:21.404Z,101072.34
2023-04-26T05:36:25.393Z,101073.00
2023-04-26T05:41:31.672Z,101074.66
2023-04-26T05:46:35.271Z,101080.88
2023-04-26T05:51:38.877Z,101085.41
2023-04-26T05:56:44.160Z,101083.88
2023-04-26T06:01:47.822Z,101096.16
2023-04-26T06:06:51.572Z,101092.97
2023-04-26T06:11:56.880Z,101090.22
2023-04-26T06:17:00.619Z,101092.22
2023-04-26T06:22:04.312Z,101103.16
2023-04-26T06:27:09.816Z,101096.31
2023-04-26T06:32:13.527Z,101095.50
2023-04-26T06:37:17.169Z,101096.03
2023-04-26T06:42:22.508Z,101095.25
2023-04-26T06:47:26.259Z,101105.34
2023-04-26T06:52:29.931Z,101105.69
2023-04-26T06:57:35.184Z,101110.13
2023-04-26T07:02:38.902Z,101111.22
2023-04-26T07:07:42.574Z,101104.91
2023-04-26T07:12:47.935Z,101109.53
2023-04-26T07:17:51.668Z,101108.81
2023-04-26T07:22:55.266Z,101102.03
2023-04-26T07:28:00.524Z,101104.25
2023-04-26T07:33:04.225Z,101111.63
2023-04-26T07:38:08.001Z,101105.19
2023-04-26T07:43:13.241Z,101104.81
2023-04-26T07:48:17.828Z,101110.28
2023-04-26T07:53:21.500Z,101106.06
2023-04-26T07:58:26.797Z,101102.22
2023-04-26T08:03:30.633Z,101101.47
2023-04-26T08:08:34.390Z,101107.41
2023-04-26T08:13:39.689Z,101120.25
2023-04-26T08:18:46.083Z,101115.00
2023-04-26T08:23:50.783Z,101124.41
2023-04-26T08:28:56.396Z,101124.00
2023-04-26T08:33:59.988Z,101114.97
2023-04-26T08:39:03.601Z,101115.31
2023-04-26T08:44:10.249Z,101119.44
2023-04-26T08:49:23.381Z,101114.06
2023-04-26T08:54:27.773Z,101109.72
2023-04-26T08:59:34.288Z,101106.31
2023-04-26T09:04:38.519Z,101098.88
2023-04-26T09:09:45.902Z,101098.75
2023-04-26T09:14:51.226Z,101099.66
2023-04-26T09:19:54.989Z,101097.91
2023-04-26T09:24:58.682Z,101102.88
2023-04-26T09:30:07.343Z,101098.44
2023-04-26T09:35:21.895Z,101084.47
2023-04-26T09:40:26.365Z,101096.09
2023-04-26T09:45:33.929Z,101097.34
2023-04-26T09:50:37.597Z,101091.72
2023-04-26T09:55:41.447Z,101096.22
2023-04-26T10:00:50.642Z,101091.69
2023-04-26T10:05:54.716Z,101098.88
2023-04-26T10:10:58.466Z,101096.22
2023-04-26T10:16:04.047Z,101101.03
2023-04-26T10:21:12.074Z,101101.19
2023-04-26T10:26:48.326Z,101103.03
2023-04-26T10:32:09.839Z,101104.88
2023-04-26T10:37:14.570Z,101104.00
2023-04-26T10:42:23.963Z,101105.22
2023-04-26T10:47:34.942Z,101097.31
2023-04-26T10:53:00.904Z,101087.97
2023-04-26T10:58:27.807Z,101089.06
2023-04-26T11:03:33.441Z,101097.19
2023-04-26T11:08:37.399Z,101096.25
2023-04-26T11:13:44.385Z,101106.91
2023-04-26T11:18:50.450Z,101106.97
2023-04-26T11:23:56.533Z,101112.94
2023-04-26T11:29:00.186Z,101102.13
2023-04-26T11:34:07.594Z,101105.59
2023-04-26T11:39:13.062Z,101110.78
2023-04-26T11:44:20.241Z,101104.16
2023-04-26T11:49:25.776Z,101110.63
2023-04-26T11:54:30.256Z,101113.22
2023-04-26T11:59:33.939Z,101113.00
2023-04-26T12:04:39.804Z,101114.91
2023-04-26T12:09:43.553Z,101107.00
2023-04-26T12:14:48.490Z,101105.06
2023-04-26T12:19:53.777Z,101108.81
2023-04-26T12:25:06.573Z,101104.94
2023-04-26T12:30:10.999Z,101121.34
2023-04-26T12:35:16.528Z,101119.88
2023-04-26T12:40:20.476Z,101112.88
2023-04-26T12:45:24.790Z,101116.75
2023-04-26T12:50:30.254Z,101129.81
2023-04-26T12:55:33.955Z,101131.53
2023-04-26T13:00:37.620Z,101122.34
2023-04-26T13:05:42.983Z,101131.38
2023-04-26T13:10:46.588Z,101134.84
2023-04-26T13:15:50.314Z,101141.59
2023-04-26T13:20:55.579Z,101139.31
2023-04-26T13:25:59.214Z,101145.00
2023-04-26T13:31:03.231Z,101168.81
2023-04-26T13:36:08.976Z,101169.91
2023-04-26T13:41:12.712Z,101167.28
2023-04-26T13:46:16.357Z,101160.25
2023-04-26T13:51:21.907Z,101167.06
2023-04-26T13:56:26.309Z,101170.72
2023-04-26T14:01:30.178Z,101173.41
2023-04-26T14:06:36.458Z,101175.19
2023-04-26T14:11:39.342Z,101174.41
2023-04-26T14:16:43.204Z,101182.88
2023-04-26T14:21:48.484Z,101186.72
2023-04-26T14:26:52.063Z,101184.53
2023-04-26T14:31:55.735Z,101191.81
2023-04-26T14:37:01.051Z,101195.34
2023-04-26T14:42:04.990Z,101201.50
2023-04-26T14:47:08.654Z,101198.31
2023-04-26T14:52:13.872Z,101200.13
2023-04-26T14:57:17.504Z,101210.53
2023-04-26T15:02:21.211Z,101215.78
2023-04-26T15:07:32.019Z,101219.13
2023-04-26T15:12:36.567Z,101225.97
2023-04-26T15:17:40.199Z,101222.25
2023-04-26T15:22:45.513Z,101219.66
2023-04-26T15:27:49.209Z,101225.66
2023-04-26T15:32:52.869Z,101229.56
2023-04-26T15:37:58.205Z,101228.78
2023-04-26T15:43:02.545Z,101236.75
2023-04-26T15:48:07.037Z,101233.41
2023-04-26T15:53:12.331Z,101247.19
2023-04-26T15:58:15.965Z,101241.94
2023-04-26T16:03:19.889Z,101237.88
2023-04-26T16:08:39.474Z,101246.41
2023-04-26T16:13:44.158Z,101239.72
2023-04-26T16:18:47.804Z,101237.66
2023-04-26T16:23:53.058Z,101235.47
2023-04-26T16:28:56.643Z,101242.09
2023-04-26T16:34:00.237Z,101244.53
2023-04-26T16:39:05.465Z,101244.31
2023-04-26T16:44:09.144Z,101239.72
2023-04-26T16:49:12.735Z,101252.88
2023-04-26T16:54:18.025Z,101250.13
2023-04-26T16:59:21.095Z,101253.47
2023-04-26T17:04:25.534Z,101254.28
2023-04-26T17:09:31.102Z,101244.53
2023-04-26T17:14:34.802Z,101243.00
2023-04-26T17:19:38.428Z,101257.63
2023-04-26T17:24:43.687Z,101253.38
2023-04-26T17:29:47.292Z,101261.06
2023-04-26T17:34:50.895Z,101249.50
2023-04-26T17:39:56.149Z,101258.34
2023-04-26T17:44:59.886Z,101256.19
2023-04-26T17:50:03.622Z,101257.22
2023-04-26T17:55:09.860Z,101246.78
2023-04-26T18:00:14.667Z,101252.31
2023-04-26T18:05:18.304Z,101257.91
2023-04-26T18:10:23.579Z,101251.22
2023-04-26T18:15:27.339Z,101254.88
2023-04-26T18:20:30.997Z,101259.22
2023-04-26T18:25:36.348Z,101262.44
2023-04-26T18:30:40.016Z,101255.75
2023-04-26T18:35:44.339Z,101260.53
2023-04-26T18:40:49.830Z,101255.53
2023-04-26T18:45:53.470Z,101254.91
2023-04-26T18:50:57.181Z,101253.44
2023-04-26T18:56:02.423Z,101250.31
2023-04-26T19:01:06.073Z,101250.47
2023-04-26T19:06:10.049Z,101249.75
2023-04-26T19:11:15.449Z,101240.75
2023-04-26T19:16:19.901Z,101251.81
2023-04-26T19:21:23.698Z,101259.19
2023-04-26T19:26:29.090Z,101253.78
2023-04-26T19:31:32.712Z,101234.63
2023-04-26T19:36:36.328Z,101232.50
2023-04-26T19:41:41.555Z,101222.50
2023-04-26T19:46:45.290Z,101211.78
2023-04-26T19:51:49.015Z,101198.53
2023-04-26T19:56:54.323Z,101205.50
2023-04-26T20:01:57.932Z,101196.38
2023-04-26T20:07:01.614Z,101191.13
2023-04-26T20:12:07.121Z,101180.34
2023-04-26T20:17:10.717Z,101181.50
2023-04-26T20:22:14.358Z,101168.75
2023-04-26T20:27:19.712Z,101169.31
2023-04-26T20:32:23.560Z,101165.44
2023-04-26T20:37:29.393Z,101170.75
2023-04-26T20:42:35.552Z,101166.47
2023-04-26T20:47:39.241Z,101159.00
2023-04-26T20:52:42.895Z,101152.22
2023-04-26T20:57:48.148Z,101142.66
2023-04-26T21:02:51.799Z,101136.81
2023-04-26T21:07:55.520Z,101130.75
2023-04-26T21:13:00.742Z,101123.56
2023-04-26T21:18:04.525Z,101112.38
2023-04-26T21:23:08.257Z,101107.56
2023-04-26T21:28:13.679Z,101103.56
2023-04-26T21:33:17.377Z,101106.19
2023-04-26T21:38:21.012Z,101098.31
2023-04-26T21:43:26.281Z,101094.66
2023-04-26T21:48:29.960Z,101092.22
2023-04-26T21:53:33.540Z,101073.41
2023-04-26T21:58:38.856Z,101070.16
2023-04-26T22:03:43.323Z,101069.06
2023-04-26T22:08:47.036Z,101060.69
2023-04-26T22:13:52.302Z,101058.44
2023-04-26T22:18:55.924Z,101041.97
2023-04-26T22:23:59.589Z,101040.88
2023-04-26T22:29:04.886Z,101039.59
2023-04-26T22:34:08.464Z,101023.50
2023-04-26T22:39:12.438Z,101019.09
2023-04-26T22:44:17.126Z,101010.94
2023-04-26T22:49:20.703Z,101002.53
2023-04-26T22:54:24.290Z,100997.69
2023-04-26T22:59:29.537Z,100989.47
2023-04-26T23:04:33.289Z,100979.41
2023-04-26T23:09:36.980Z,100967.56
2023-04-26T23:14:43.212Z,100976.53
2023-04-26T23:19:46.838Z,100972.16
2023-04-26T23:24:50.477Z,100968.59
2023-04-26T23:29:56.759Z,100965.22
2023-04-26T23:35:00.574Z,100957.88
2023-04-26T23:40:04.655Z,100948.81
2023-04-26T23:45:11.389Z,100951.38
2023-04-26T23:50:15.003Z,100947.97
2023-04-26T23:55:18.866Z,100934.03
